Latest Coastal Weather Observations for Sydney Airport

IDN60701

Issued at 7:31 pm EDT Sunday 7 February 2016 (issued every 10 minutes, with the page automatically refreshed every 10 minutes)

About coastal observations | Map of coastal stations | Coastal observations for NSW | Marine services | Other Formats
Station Details ID: 066037 Name: SYDNEY AIRPORT AMO Lat: -33.95 Lon: 151.17 Height: 6.0 m
Data from the previous 72 hours. | See also: Recent months at Sydney Airport
Date/Time
EDT
Temp

°C
Wind Pressure Rain
since 9am
mm
Weather Cloud Vis
km
Sea
Height
m
Swell
Dir
 
Speed
knots
Gust
knots
hPa Trend Height
m
Period
s
Dir
07/07:00pm 24.4 SE 9 10 1016.8 - 0.0 - Mostly clear 10 - - - -
07/06:30pm 24.9 SSE 8 10 1016.6 - 0.0 - Mostly clear 10 - - - -
07/06:00pm 25.2 SE 10 13 1016.4 R 0.0 Fine Mostly clear 30 - - - -
07/05:30pm 25.6 SE 10 14 1016.2 - 0.0 - Mostly clear 10 - - - -
07/05:00pm 25.8 SE 11 15 1016.1 - 0.0 - Mostly clear 10 - - - -
07/04:30pm 26.0 SE 11 15 1016.1 - 0.0 - Mostly clear 10 - - - -
07/04:00pm 26.0 SE 11 14 1016.3 - 0.0 - Mostly clear 10 - - - -
07/03:30pm 25.9 SE 11 15 1016.3 - 0.0 - Mostly clear 10 - - - -
07/03:00pm 25.7 SE 12 15 1016.6 R 0.0 Haze Partly cloudy 25 - - - -
07/02:30pm 25.5 SE 12 15 1016.8 - 0.0 - Partly cloudy 10 - - - -
07/02:00pm 24.3 SSE 12 16 1016.9 - 0.0 - Partly cloudy 10 - - - -
07/01:30pm 24.0 S 13 16 1017.2 - 0.0 - Mostly clear 10 - - - -
07/01:00pm 24.0 S 14 17 1017.4 - 0.0 - Mostly clear 10 - - - -
07/12:30pm 24.2 S 12 16 1017.6 - 0.0 - Mostly clear 10 - - - -
07/12:00pm 24.1 S 12 17 1017.8 S 0.0 Haze Partly cloudy 20 - - - -
07/11:30am 23.1 S 14 16 1017.9 - 0.0 - Partly cloudy 10 - - - -
07/11:00am 23.1 S 12 15 1018.1 - 0.0 - Mostly cloudy 10 - - - -
07/10:30am 22.7 S 12 22 1018.1 - 0.0 - Partly cloudy 10 - - - -
07/10:00am 22.8 S 10 12 1018.1 - 0.0 - Partly cloudy 10 - - - -
07/09:30am 22.7 S 11 17 1018.2 - 0.0 - Partly cloudy 10 - - - -
07/09:00am 23.7 SSE 8 10 1018.0 F 0.4 Haze Partly cloudy 20 - - - -
07/08:30am 22.4 SSW 6 7 1017.9 - 0.4 - Partly cloudy 10 - - - -
07/08:00am 21.7 SW 7 8 1017.7 - 0.4 - Partly cloudy 10 - - - -
07/07:30am 21.4 SW 7 9 1017.6 - 0.4 - Partly cloudy 10 - - - -
07/07:00am 20.6 SW 7 10 1017.3 - 0.4 - Mostly clear 10 - - - -
07/06:30am 20.5 SSW 5 6 1017.1 - 0.4 - Mostly clear 10 - - - -
07/06:00am 20.6 SE 5 6 1016.9 F 0.4 Haze Partly cloudy 25 - - - -
07/05:30am 20.7 ESE 7 9 1016.5 - 0.4 - Mostly clear 10 - - - -
07/05:00am 21.3 SE 9 12 1016.4 - 0.4 - Mostly clear 10 - - - -
07/04:30am 21.5 SSE 7 9 1016.5 - 0.4 - Mostly cloudy 10 - - - -
07/04:00am 21.5 SSE 6 7 1016.6 - 0.4 - Mostly clear 10 - - - -
07/03:30am 22.0 SSE 7 9 1016.9 - 0.4 - Mostly clear 10 - - - -
07/03:00am 21.8 SE 6 7 1016.9 F 0.4 Haze Mostly cloudy 20 - - - -
07/02:30am 21.9 SSE 7 8 1017.1 - 0.4 - Mostly clear 10 - - - -
07/02:00am 21.9 SSE 8 9 1017.1 - 0.4 - Mostly clear 10 - - - -
07/01:30am 21.9 SE 7 9 1017.2 - 0.4 - Mostly clear 10 - - - -
07/01:00am 21.7 ESE 7 8 1017.8 - 0.4 - Mostly clear 10 - - - -
07/12:30am 21.9 ESE 7 9 1018.0 - 0.4 - Mostly clear 10 - - - -
07/12:00am 22.1 SE 8 9 1018.2 F 0.4 Fine Mostly cloudy 25 - - - -
 
Date/Time
EDT
Temp

°C
Wind Pressure Rain
since 9am
mm
Weather Cloud Vis
km
Sea
Height
m
Swell
Dir
 
Speed
knots
Gust
knots
hPa Trend Height
m
Period
s
Dir
06/11:30pm 21.8 SE 10 13 1017.9 - 0.4 - Mostly clear 10 - - - -
06/11:00pm 22.0 SE 9 11 1018.0 - 0.4 - Mostly clear 10 - - - -
06/10:30pm 21.8 ESE 9 11 1018.1 - 0.4 - Mostly clear 10 - - - -
06/10:00pm 22.1 ESE 11 15 1018.2 - 0.4 - Mostly clear 10 - - - -
06/09:30pm 22.5 SE 8 10 1018.0 - 0.4 - Mostly clear 10 - - - -
06/09:00pm 22.4 SE 9 12 1018.0 R 0.4 Fine Partly cloudy 25 - - - -
06/08:30pm 22.7 ESE 10 13 1017.9 - 0.4 - Partly cloudy 10 - - - -
06/08:00pm 22.4 SE 10 12 1017.6 - 0.4 - Mostly clear 10 - - - -
06/07:30pm 23.1 ESE 10 14 1017.4 - 0.4 - Mostly clear 10 - - - -
06/07:00pm 23.4 SE 12 16 1017.0 - 0.4 - Mostly clear 10 - - - -
06/06:30pm 23.5 SE 13 16 1016.7 - 0.4 - Mostly clear 10 - - - -
06/06:00pm 24.2 SE 14 18 1016.3 F 0.4 Fine Partly cloudy 25 - - - -
06/05:30pm 25.2 SE 13 18 1016.2 - 0.4 - Partly cloudy 10 - - - -
06/05:00pm 24.9 SE 14 16 1016.3 - 0.4 - Mostly clear 10 - - - -
06/04:30pm 25.3 ESE 13 16 1016.6 - 0.4 - Mostly clear 10 - - - -
06/04:00pm 25.7 SE 14 17 1016.7 - 0.4 - Partly cloudy 10 - - - -
06/03:30pm 25.0 SE 14 17 1016.9 - 0.4 - Mostly clear 10 - - - -
06/03:00pm 25.2 SE 14 16 1017.0 R 0.4 Fine Partly cloudy 25 - - - -
06/02:30pm 25.8 SE 13 16 1017.3 - 0.4 - Mostly clear 10 - - - -
06/02:00pm 25.9 SE 13 17 1017.5 - 0.4 - Mostly clear 10 - - - -
06/01:30pm 24.7 SE 14 17 1017.6 - 0.4 - Mostly clear 10 - - - -
06/01:00pm 25.7 SE 14 17 1017.7 - 0.4 - Mostly clear 10 - - - -
06/12:30pm 25.1 SE 15 18 1017.9 - 0.2 - Mostly clear 10 - - - -
06/12:00pm 24.6 ESE 13 18 1018.1 R 0.2 Distant precip. Mostly cloudy 25 - - - -
06/11:30am 23.6 SE 14 17 1018.1 - 0.2 - Partly cloudy 10 - - - -
06/11:00am 23.5 SE 14 17 1018.2 - 0.2 - Mostly clear 10 - - - -
06/10:30am 22.0 SSE 11 17 1018.4 - 0.2 - Mostly clear 10 - - - -
06/10:00am 21.7 SSE 7 9 1018.3 - 0.0 - Mostly clear 10 - - - -
06/09:30am 21.3 S 11 14 1018.2 - 0.0 Showers Mostly clear 10 - - - -
06/09:00am 21.1 S 11 14 1018.2 R 0.6 Distant precip. Mostly cloudy 22 - - - -
06/08:30am 20.8 S 14 18 1018.1 - 0.6 - Mostly clear 10 - - - -
06/08:00am 21.2 SSE 17 23 1017.7 - 0.6 - Mostly clear 9 - - - -
06/07:41am 20.5 SSE 13 17 1017.7 - 0.0 Showers Mostly clear 6 - - - -
06/07:30am 21.7 SSE 15 18 1017.5 - 0.0 Showers Mostly clear 10 - - - -
06/07:00am 22.1 SSE 16 20 1017.0 - 0.0 - Mostly clear 10 - - - -
06/06:30am 22.0 SSE 16 20 1016.7 - 0.0 - Mostly clear 10 - - - -
06/06:00am 21.9 SSE 15 20 1016.5 F 0.0 Distant precip. Mostly cloudy 25 - - - -
06/05:30am 21.7 SSE 13 17 1016.5 - 0.0 - Mostly clear 10 - - - -
06/05:00am 21.6 SSE 12 15 1016.6 - 0.0 - Mostly clear 10 - - - -
06/04:30am 21.6 S 15 17 1016.6 - 0.0 - - 10 - - - -
06/04:00am 21.4 S 14 17 1016.7 - 0.0 - Mostly clear 10 - - - -
06/03:30am 21.5 S 17 21 1016.7 - 0.0 - Mostly clear 10 - - - -
06/03:00am 21.6 S 17 24 1016.8 F 0.0 Fine Partly cloudy 20 - - - -
06/02:30am 21.9 SSE 16 20 1017.0 - 0.0 - Mostly clear 10 - - - -
06/02:00am 21.6 SSE 14 17 1017.3 - 0.0 - Mostly clear 10 - - - -
06/01:30am 21.7 SSE 17 22 1017.5 - 0.0 - Mostly clear 10 - - - -
06/01:00am 21.6 SSE 15 19 1017.8 - 0.0 - Partly cloudy 10 - - - -
06/12:30am 21.4 SSE 17 24 1018.1 - 0.0 - Mostly clear 10 - - - -
06/12:00am 21.5 SSE 18 22 1018.2 F 0.0 Fine Partly cloudy 20 - - - -
 
Date/Time
EDT
Temp

°C
Wind Pressure Rain
since 9am
mm
Weather Cloud Vis
km
Sea
Height
m
Swell
Dir
 
Speed
knots
Gust
knots
hPa Trend Height
m
Period
s
Dir
05/11:30pm 21.1 SSE 15 20 1018.5 - 0.0 - Mostly clear 10 - - - -
05/11:00pm 21.5 SSE 17 21 1018.6 - 0.0 - Partly cloudy 10 - - - -
05/10:30pm 22.1 SSE 17 22 1018.5 - 0.0 Showers Partly cloudy 10 - - - -
05/10:00pm 22.0 SSE 16 20 1018.6 - 0.0 - Mostly clear 10 - - - -
05/09:30pm 22.0 SSE 17 22 1018.5 - 0.0 - Mostly clear 10 - - - -
05/09:00pm 22.2 SSE 19 23 1018.3 F 0.0 Distant precip. Partly cloudy 20 - - - -
05/08:30pm 22.4 SSE 19 23 1018.0 - 0.0 - Partly cloudy 10 - - - -
05/08:00pm 22.8 SSE 19 22 1017.8 - 0.0 - Mostly clear 10 - - - -
05/07:30pm 22.6 SSE 17 22 1017.6 - 0.0 - Partly cloudy 10 - - - -
05/07:00pm 23.1 SSE 19 24 1017.4 - 0.0 - Partly cloudy 10 - - - -
05/06:30pm 22.7 SSE 19 23 1017.2 - 0.0 - Partly cloudy 10 - - - -
05/06:00pm 22.9 SSE 19 25 1017.2 F 0.0 Distant precip. Mostly cloudy 20 - - - -
05/05:30pm 22.9 S 20 25 1017.2 - 0.0 - Partly cloudy 10 - - - -
05/05:00pm 22.8 SSE 20 26 1017.2 - 0.0 - Mostly clear 10 - - - -
05/04:30pm 23.0 SSE 20 27 1017.4 - 0.0 - Partly cloudy 10 - - - -
05/04:00pm 23.2 S 19 26 1017.5 - 0.0 - Partly cloudy 10 - - - -
05/03:30pm 23.2 S 21 28 1017.7 - 0.0 - Partly cloudy 10 - - - -
05/03:00pm 23.2 S 20 27 1017.8 R 0.0 Fine Partly cloudy 20 - - - -
05/02:30pm 23.3 S 20 27 1017.9 - 0.0 - Partly cloudy 10 - - - -
05/02:00pm 23.2 S 20 26 1018.0 - 0.0 - Partly cloudy 10 - - - -
05/01:30pm 23.2 S 21 28 1018.0 - 0.0 - Partly cloudy 10 - - - -
05/01:00pm 23.1 S 21 27 1018.0 - 0.0 - Mostly clear 10 - - - -
05/12:30pm 22.9 S 23 29 1018.1 - 0.0 - Mostly clear 10 - - - -
05/12:00pm 23.0 S 23 29 1018.0 R 0.0 Fine Partly cloudy 20 - - - -
05/11:30am 22.9 S 24 30 1018.1 - 0.0 - Partly cloudy 10 - - - -
05/11:00am 22.2 S 21 29 1018.0 - 0.0 - Partly cloudy 10 - - - -
05/10:30am 22.0 S 20 27 1018.0 - 0.0 - Partly cloudy 10 - - - -
05/10:00am 21.9 S 22 27 1017.8 - 0.0 - Partly cloudy 10 - - - -
05/09:30am 21.4 SSE 17 26 1017.6 - 0.0 - Partly cloudy 10 - - - -
05/09:00am 21.3 S 19 26 1017.4 R 1.6 Fine Mostly cloudy 20 - - - -
05/08:30am 21.8 S 20 26 1017.0 - 1.6 - Mostly clear 10 - - - -
05/08:00am 20.9 S 22 27 1016.6 - 1.6 - Mostly clear 10 - - - -
05/07:30am 20.7 S 22 29 1016.4 - 1.6 - Mostly clear 10 - - - -
05/07:00am 21.2 S 23 29 1015.9 - 1.6 - Mostly clear 10 - - - -
05/06:30am 21.1 S 21 28 1015.5 - 1.6 - Mostly clear 10 - - - -
05/06:00am 21.2 S 25 33 1014.9 R 1.6 Fine Mostly cloudy 20 - - - -
05/05:30am 21.5 S 22 28 1014.6 - 1.6 - Mostly clear 10 - - - -
05/05:00am 21.5 SSE 22 27 1014.5 - 1.6 - Mostly clear 10 - - - -
05/04:30am 21.5 S 23 29 1014.3 - 1.6 - Mostly clear 10 - - - -
05/04:00am 21.5 S 23 30 1014.2 - 1.6 - Mostly clear 10 - - - -
05/03:30am 21.5 S 23 28 1014.3 - 1.6 - Partly cloudy 10 - - - -
05/03:00am 21.4 S 21 28 1014.6 S 1.6 Distant precip. Mostly cloudy 20 - - - -
05/02:30am 21.4 SSE 21 29 1014.9 - 1.6 - Partly cloudy 10 - - - -
05/02:00am 21.2 S 24 31 1015.0 - 1.6 - Partly cloudy 10 - - - -
05/01:30am 21.4 S 24 32 1015.2 - 1.6 - Partly cloudy 10 - - - -
05/01:00am 20.9 S 20 26 1015.3 - 1.6 - Partly cloudy 10 - - - -
05/12:30am 21.2 S 22 31 1015.4 - 1.6 Showers Partly cloudy 9 - - - -
05/12:00am 21.4 S 22 29 1015.6 S 1.6 Distant precip. Mostly cloudy 15 - - - -
 
Date/Time
EDT
Temp

°C
Wind Pressure Rain
since 9am
mm
Weather Cloud Vis
km
Sea
Height
m
Swell
Dir
 
Speed
knots
Gust
knots
hPa Trend Height
m
Period
s
Dir
04/11:37pm 21.8 S 19 29 1015.5 - 1.6 - Partly cloudy 10 - - - -
04/11:30pm 21.5 S 18 24 1015.6 - 1.6 - Partly cloudy 10 - - - -
04/11:00pm 21.9 S 22 30 1015.7 - 1.6 - Partly cloudy 10 - - - -
04/10:30pm 21.9 S 23 31 1015.7 - 1.6 - Partly cloudy 10 - - - -
04/10:00pm 22.0 S 27 36 1015.5 - 1.6 - Partly cloudy 10 - - - -
04/09:30pm 21.8 S 24 30 1015.3 - 1.6 - Partly cloudy 10 - - - -
04/09:00pm 21.8 S 26 32 1015.1 R 1.6 Haze Mostly cloudy 18 - - - -
04/08:30pm 21.9 S 24 32 1014.9 - 1.6 - Partly cloudy 10 - - - -
04/08:00pm 22.0 S 25 33 1014.6 - 1.6 - Partly cloudy 10 - - - -

Other Formats:

Comma delimited format used in spreadsheet applications
http://www.bom.gov.au/fwo/IDN60701/IDN60701.94767.axf

JavaScript Object Notation format (JSON) in row-major order
http://www.bom.gov.au/fwo/IDN60701/IDN60701.94767.json